createdAt,value
2023-01-19T00:01:47.472Z,25.33
2023-01-19T00:04:17.182Z,21.07
2023-01-19T00:06:47.107Z,23.67
2023-01-19T00:09:16.898Z,26.43
2023-01-19T00:11:46.686Z,27.87
2023-01-19T00:14:16.747Z,22.70
2023-01-19T00:16:46.621Z,20.50
2023-01-19T00:19:16.819Z,24.87
2023-01-19T00:21:46.626Z,22.83
2023-01-19T00:24:16.232Z,22.13
2023-01-19T00:26:46.085Z,25.80
2023-01-19T00:29:16.092Z,27.50
2023-01-19T00:31:46.185Z,25.60
2023-01-19T00:34:16.450Z,29.00
2023-01-19T00:36:46.256Z,23.77
2023-01-19T00:39:16.054Z,25.97
2023-01-19T00:42:03.484Z,25.10
2023-01-19T00:44:33.600Z,24.20
2023-01-19T00:47:05.545Z,23.20
2023-01-19T00:49:35.354Z,21.37
2023-01-19T00:52:07.011Z,25.53
2023-01-19T00:54:36.849Z,25.67
2023-01-19T00:57:06.666Z,29.40
2023-01-19T00:59:36.745Z,25.15
2023-01-19T01:02:08.303Z,25.08
2023-01-19T01:04:38.574Z,27.73
2023-01-19T01:07:08.898Z,25.27
2023-01-19T01:09:38.854Z,23.33
2023-01-19T01:12:09.679Z,23.10
2023-01-19T01:14:39.943Z,29.35
2023-01-19T01:17:11.558Z,26.40
2023-01-19T01:19:42.545Z,21.17
2023-01-19T01:22:12.374Z,20.50
2023-01-19T01:24:42.220Z,24.27
2023-01-19T01:27:12.066Z,24.83
2023-01-19T01:29:43.655Z,25.43
2023-01-19T01:32:17.330Z,23.53
2023-01-19T01:34:47.111Z,26.43
2023-01-19T01:37:16.929Z,23.43
2023-01-19T01:39:46.724Z,26.53
2023-01-19T01:42:19.298Z,29.47
2023-01-19T01:44:55.091Z,26.57
2023-01-19T01:49:58.589Z,30.25
2023-01-19T01:52:30.475Z,25.17
2023-01-19T01:55:03.133Z,26.60
2023-01-19T01:57:33.099Z,24.50
2023-01-19T02:00:04.371Z,26.77
2023-01-19T02:02:53.564Z,24.50
2023-01-19T02:05:34.595Z,26.77
2023-01-19T02:08:36.083Z,21.42
2023-01-19T02:11:24.485Z,26.30
2023-01-19T02:13:54.704Z,26.07
2023-01-19T02:16:24.516Z,19.92
2023-01-19T02:18:54.313Z,20.93
2023-01-19T02:21:27.148Z,20.90
2023-01-19T02:24:00.200Z,25.67
2023-01-19T02:26:32.990Z,20.70
2023-01-19T02:29:05.861Z,21.93
2023-01-19T02:31:38.981Z,23.60
2023-01-19T02:34:15.358Z,19.67
2023-01-19T02:36:50.754Z,23.67
2023-01-19T02:39:23.321Z,20.63
2023-01-19T02:41:56.192Z,23.73
2023-01-19T02:44:27.444Z,20.35
2023-01-19T02:46:57.652Z,19.33
2023-01-19T02:49:30.212Z,19.20
2023-01-19T02:52:01.149Z,22.10
2023-01-19T02:54:50.226Z,20.73
2023-01-19T02:57:34.202Z,20.97
2023-01-19T03:00:10.927Z,18.87
2023-01-19T03:02:44.011Z,16.67
2023-01-19T03:05:20.062Z,19.60
2023-01-19T03:10:58.136Z,20.92
2023-01-19T03:13:42.734Z,14.80
2023-01-19T03:16:33.099Z,17.20
2023-01-19T03:19:11.621Z,18.40
2023-01-19T03:21:44.446Z,13.83
2023-01-19T03:24:16.173Z,15.78
2023-01-19T03:29:35.977Z,14.53
2023-01-19T03:32:09.761Z,13.60
2023-01-19T03:34:42.691Z,12.30
2023-01-19T03:37:14.508Z,15.23
2023-01-19T03:39:44.408Z,14.57
2023-01-19T03:42:17.035Z,13.90
2023-01-19T03:44:49.645Z,11.80
2023-01-19T03:47:20.945Z,13.00
2023-01-19T03:49:52.980Z,12.23
2023-01-19T03:52:35.748Z,12.93
2023-01-19T03:55:07.920Z,10.33
2023-01-19T03:57:38.220Z,13.37
2023-01-19T04:00:10.639Z,12.88
2023-01-19T04:02:42.146Z,8.10
2023-01-19T04:05:11.668Z,8.90
2023-01-19T04:07:41.430Z,4.73
2023-01-19T04:10:12.753Z,3.65
2023-01-19T04:12:42.823Z,4.50
2023-01-19T04:15:12.920Z,4.37
2023-01-19T04:17:43.037Z,3.33
2023-01-19T04:20:14.283Z,3.22
2023-01-19T04:22:44.576Z,4.60
2023-01-19T04:25:14.412Z,3.80
2023-01-19T04:27:44.186Z,4.33
2023-01-19T04:30:15.245Z,5.12
2023-01-19T04:32:45.016Z,4.80
2023-01-19T04:35:14.743Z,8.53
2023-01-19T04:37:45.062Z,7.40
2023-01-19T04:40:16.973Z,3.98
2023-01-19T04:42:47.274Z,7.03
2023-01-19T04:45:17.359Z,4.53
2023-01-19T04:47:47.127Z,6.47
2023-01-19T04:50:17.585Z,5.25
2023-01-19T04:52:48.979Z,5.47
2023-01-19T04:55:19.830Z,6.10
2023-01-19T04:57:49.780Z,5.30
2023-01-19T05:00:20.726Z,4.10
2023-01-19T05:02:50.747Z,3.83
2023-01-19T05:05:20.679Z,4.27
2023-01-19T05:07:50.718Z,2.90
2023-01-19T05:10:20.358Z,3.52
2023-01-19T05:12:50.118Z,5.80
2023-01-19T05:15:19.838Z,3.10
2023-01-19T05:17:49.977Z,2.33
2023-01-19T05:20:19.923Z,2.62
2023-01-19T05:22:54.068Z,7.40
2023-01-19T05:25:23.584Z,2.27
2023-01-19T05:27:53.593Z,1.60
2023-01-19T05:30:23.207Z,3.10
2023-01-19T05:32:52.980Z,3.10
2023-01-19T05:35:35.371Z,4.00
2023-01-19T05:37:55.173Z,2.00
2023-01-19T05:40:24.673Z,3.23
2023-01-19T05:42:54.489Z,2.30
2023-01-19T05:45:24.167Z,3.03
2023-01-19T05:47:55.864Z,4.00
2023-01-19T05:50:25.759Z,5.00
2023-01-19T05:52:55.613Z,3.70
2023-01-19T05:55:25.576Z,3.40
2023-01-19T05:57:55.185Z,4.80
2023-01-19T06:00:26.594Z,5.73
2023-01-19T06:02:56.541Z,2.40
2023-01-19T06:05:26.071Z,5.50
2023-01-19T06:07:57.881Z,8.20
2023-01-19T06:10:27.687Z,7.60
2023-01-19T06:12:57.452Z,4.43
2023-01-19T06:15:27.397Z,11.27
2023-01-19T06:17:57.174Z,7.70
2023-01-19T06:20:27.014Z,10.23
2023-01-19T06:22:59.259Z,10.73
2023-01-19T06:25:29.558Z,5.15
2023-01-19T06:27:59.692Z,8.38
2023-01-19T06:30:29.192Z,6.85
2023-01-19T06:32:59.216Z,11.57
2023-01-19T06:35:29.082Z,9.47
2023-01-19T06:37:58.935Z,11.13
2023-01-19T06:40:28.469Z,7.03
2023-01-19T06:42:58.992Z,8.05
2023-01-19T06:45:28.903Z,14.17
2023-01-19T06:47:58.669Z,7.37
2023-01-19T06:50:28.658Z,9.60
2023-01-19T06:52:58.783Z,10.55
2023-01-19T06:55:28.875Z,9.50
2023-01-19T06:58:01.705Z,10.90
2023-01-19T07:00:31.738Z,8.47
2023-01-19T07:03:02.388Z,11.13
2023-01-19T07:05:32.605Z,10.10
2023-01-19T07:08:03.363Z,8.60
2023-01-19T07:11:26.815Z,9.87
2023-01-19T07:13:05.777Z,9.63
2023-01-19T07:15:35.603Z,10.20
2023-01-19T07:18:08.168Z,12.53
2023-01-19T07:20:39.069Z,12.73
2023-01-19T07:23:09.266Z,13.67
2023-01-19T07:25:39.698Z,11.77
2023-01-19T07:28:12.901Z,16.66
2023-01-19T07:30:46.293Z,13.72
2023-01-19T07:33:16.169Z,9.97
2023-01-19T07:35:49.576Z,15.67
2023-01-19T07:38:20.284Z,19.93
2023-01-19T07:40:50.063Z,13.97
2023-01-19T07:43:19.926Z,19.33
2023-01-19T07:45:50.172Z,20.88
2023-01-19T07:48:20.095Z,22.27
2023-01-19T07:50:49.998Z,19.47
2023-01-19T07:53:20.118Z,18.07
2023-01-19T07:55:53.367Z,18.42
2023-01-19T07:58:23.425Z,18.73
2023-01-19T08:00:53.586Z,26.70
2023-01-19T08:03:23.753Z,27.37
2023-01-19T08:05:54.525Z,31.40
2023-01-19T08:08:24.327Z,29.35
2023-01-19T08:10:53.999Z,22.70
2023-01-19T08:13:23.916Z,26.60
2023-01-19T08:15:55.208Z,26.27
2023-01-19T08:18:24.754Z,32.50
2023-01-19T08:20:54.527Z,24.70
2023-01-19T08:23:24.312Z,24.97
2023-01-19T08:25:54.189Z,28.87
2023-01-19T08:28:24.205Z,29.05
2023-01-19T08:30:56.535Z,27.03
2023-01-19T08:33:26.644Z,28.07
2023-01-19T08:35:56.479Z,23.87
2023-01-19T08:38:26.025Z,26.48
2023-01-19T08:40:55.939Z,30.03
2023-01-19T08:43:25.988Z,35.80
2023-01-19T08:45:56.494Z,34.30
2023-01-19T08:48:26.011Z,29.95
2023-01-19T08:50:55.860Z,29.50
2023-01-19T08:53:26.033Z,24.37
2023-01-19T08:55:59.511Z,25.50
2023-01-19T08:58:29.412Z,24.98
2023-01-19T09:01:03.043Z,25.57
2023-01-19T09:03:32.688Z,30.05
2023-01-19T09:06:03.081Z,21.47
2023-01-19T09:08:32.926Z,29.40
2023-01-19T09:11:02.966Z,24.80
2023-01-19T09:13:32.885Z,22.23
2023-01-19T09:16:04.840Z,13.73
2023-01-19T09:18:35.846Z,17.50
2023-01-19T09:21:05.804Z,17.93
2023-01-19T09:23:35.607Z,23.10
2023-01-19T09:26:07.438Z,17.67
2023-01-19T09:28:38.104Z,21.33
2023-01-19T09:31:09.636Z,20.50
2023-01-19T09:33:39.634Z,23.20
2023-01-19T09:36:11.263Z,21.60
2023-01-19T09:38:41.390Z,18.12
2023-01-19T09:41:16.748Z,19.57
2023-01-19T09:43:49.241Z,22.77
2023-01-19T09:46:24.548Z,28.00
2023-01-19T09:48:57.704Z,16.53
2023-01-19T09:51:30.082Z,20.70
2023-01-19T09:54:22.444Z,24.83
2023-01-19T09:56:53.873Z,26.80
2023-01-19T09:59:29.047Z,20.83
2023-01-19T10:02:22.219Z,26.40
2023-01-19T10:05:02.977Z,28.93
2023-01-19T10:07:44.760Z,26.83
2023-01-19T10:10:28.042Z,35.34
2023-01-19T10:13:17.748Z,36.70
2023-01-19T10:15:53.147Z,39.93
2023-01-19T10:18:29.154Z,38.83
2023-01-19T10:21:13.610Z,47.38
2023-01-19T10:23:58.214Z,45.10
2023-01-19T10:26:32.339Z,45.23
2023-01-19T10:29:21.246Z,39.27
2023-01-19T10:31:53.745Z,40.00
2023-01-19T10:34:24.033Z,44.37
2023-01-19T10:36:56.900Z,44.40
2023-01-19T10:39:26.830Z,46.20
2023-01-19T10:41:58.529Z,41.00
2023-01-19T10:44:31.672Z,40.70
2023-01-19T10:47:02.401Z,39.30
2023-01-19T10:49:38.332Z,39.03
2023-01-19T10:54:39.127Z,40.23
2023-01-19T10:57:12.442Z,44.07
2023-01-19T10:59:51.285Z,42.97
2023-01-19T11:02:29.074Z,45.58
2023-01-19T11:05:04.951Z,51.35
2023-01-19T11:07:35.861Z,47.40
2023-01-19T11:10:20.793Z,49.08
2023-01-19T11:13:10.104Z,46.47
2023-01-19T11:15:45.866Z,48.87
2023-01-19T11:18:25.167Z,44.42
2023-01-19T11:20:58.209Z,35.20
2023-01-19T11:23:35.875Z,43.08
2023-01-19T11:28:51.635Z,44.83
2023-01-19T11:31:31.429Z,44.17
2023-01-19T11:34:06.553Z,44.17
2023-01-19T11:36:37.759Z,39.65
2023-01-19T11:39:28.416Z,43.23
2023-01-19T11:42:03.552Z,37.65
2023-01-19T11:44:39.005Z,43.43
2023-01-19T11:47:17.280Z,41.70
2023-01-19T11:50:01.743Z,37.03
2023-01-19T11:52:46.356Z,37.23
2023-01-19T11:55:24.981Z,33.28
2023-01-19T11:57:55.509Z,35.00
2023-01-19T12:00:31.154Z,34.95
2023-01-19T12:03:03.729Z,26.93
2023-01-19T12:05:36.014Z,25.63
2023-01-19T12:08:09.223Z,22.77
2023-01-19T12:10:43.505Z,25.57
2023-01-19T12:13:22.785Z,21.97
2023-01-19T12:15:58.346Z,20.43
2023-01-19T12:18:31.184Z,33.57
2023-01-19T12:21:03.830Z,22.00
2023-01-19T12:23:58.476Z,23.85
2023-01-19T12:26:33.818Z,17.63
2023-01-19T12:29:09.284Z,17.27
2023-01-19T12:31:40.713Z,28.67
2023-01-19T12:34:29.709Z,23.44
2023-01-19T12:37:05.313Z,19.27
2023-01-19T12:39:35.813Z,23.60
2023-01-19T12:42:18.508Z,18.67
2023-01-19T12:44:49.530Z,19.30
2023-01-19T12:47:21.068Z,19.80
2023-01-19T12:49:54.502Z,19.50
2023-01-19T12:52:33.972Z,19.25
2023-01-19T12:55:19.173Z,22.23
2023-01-19T12:58:09.794Z,16.10
2023-01-19T13:00:44.557Z,17.00
2023-01-19T13:03:29.546Z,19.35
2023-01-19T13:05:59.857Z,18.02
2023-01-19T13:08:48.708Z,21.00
2023-01-19T13:11:20.034Z,18.07
2023-01-19T13:13:52.871Z,22.00
2023-01-19T13:16:27.421Z,21.23
2023-01-19T13:19:05.186Z,23.87
2023-01-19T13:21:39.429Z,18.20
2023-01-19T13:24:11.813Z,12.43
2023-01-19T13:26:53.590Z,18.63
2023-01-19T13:29:38.356Z,19.05
2023-01-19T13:32:19.278Z,15.48
2023-01-19T13:34:59.322Z,15.70
2023-01-19T13:37:32.216Z,19.07
2023-01-19T13:40:03.096Z,19.63
2023-01-19T13:42:36.397Z,18.37
2023-01-19T13:45:34.524Z,17.15
2023-01-19T13:48:09.962Z,24.95
2023-01-19T13:50:39.515Z,19.00
2023-01-19T13:53:21.095Z,18.50
2023-01-19T13:56:08.073Z,17.77
2023-01-19T14:01:06.247Z,20.32
2023-01-19T14:03:36.177Z,22.87
2023-01-19T14:06:07.210Z,19.00
2023-01-19T14:08:37.413Z,16.97
2023-01-19T14:11:07.547Z,17.47
2023-01-19T14:13:39.496Z,17.20
2023-01-19T14:16:18.500Z,22.57
2023-01-19T14:18:49.809Z,22.10
2023-01-19T14:21:19.661Z,15.30
2023-01-19T14:24:08.681Z,25.13
2023-01-19T14:26:52.685Z,18.77
2023-01-19T14:29:32.945Z,23.30
2023-01-19T14:32:06.073Z,20.17
2023-01-19T14:34:44.708Z,17.43
2023-01-19T14:37:20.370Z,20.20
2023-01-19T14:39:58.750Z,20.48
2023-01-19T14:42:31.578Z,21.07
2023-01-19T14:45:03.887Z,18.45
2023-01-19T14:47:39.203Z,21.62
2023-01-19T14:50:26.851Z,17.10
2023-01-19T14:53:24.952Z,21.97
2023-01-19T14:55:57.413Z,20.30
2023-01-19T14:58:29.989Z,20.17
2023-01-19T15:01:00.013Z,24.90
2023-01-19T15:03:44.322Z,21.25
2023-01-19T15:06:04.461Z,24.55
2023-01-19T15:08:37.624Z,23.80
2023-01-19T15:11:22.748Z,31.97
2023-01-19T15:13:53.107Z,32.00
2023-01-19T15:16:27.195Z,24.57
2023-01-19T15:18:57.415Z,34.90
2023-01-19T15:21:27.417Z,33.63
2023-01-19T15:23:58.457Z,29.73
2023-01-19T15:26:28.385Z,32.75
2023-01-19T15:28:58.220Z,27.17
2023-01-19T15:31:28.317Z,28.57
2023-01-19T15:33:58.124Z,28.57
2023-01-19T15:36:28.273Z,35.28
2023-01-19T15:38:58.362Z,30.80
2023-01-19T15:41:32.626Z,31.70
2023-01-19T15:44:03.587Z,30.70
2023-01-19T15:46:33.952Z,35.70
2023-01-19T15:49:05.620Z,35.77
2023-01-19T15:51:35.754Z,32.83
2023-01-19T15:54:05.645Z,30.07
2023-01-19T15:56:35.425Z,35.13
2023-01-19T15:59:05.250Z,30.33
2023-01-19T16:01:36.224Z,30.87
2023-01-19T16:04:09.519Z,30.40
2023-01-19T16:06:39.202Z,31.10
2023-01-19T16:09:09.057Z,34.87
2023-01-19T16:11:38.965Z,27.17
2023-01-19T16:14:10.455Z,21.20
2023-01-19T16:16:42.352Z,25.45
2023-01-19T16:19:15.899Z,22.70
2023-01-19T16:21:45.741Z,20.60
2023-01-19T16:24:15.821Z,25.57
2023-01-19T16:26:45.674Z,22.17
2023-01-19T16:29:15.717Z,21.12
2023-01-19T16:31:46.230Z,20.83
2023-01-19T16:34:18.155Z,17.83
2023-01-19T16:36:47.932Z,23.60
2023-01-19T16:39:18.736Z,31.17
2023-01-19T16:41:48.612Z,30.30
2023-01-19T16:44:19.040Z,34.25
2023-01-19T16:46:51.817Z,33.20
2023-01-19T16:49:24.216Z,37.80
2023-01-19T16:51:58.336Z,42.50
2023-01-19T16:54:30.020Z,45.00
2023-01-19T16:57:00.132Z,41.73
2023-01-19T16:59:30.354Z,40.05
2023-01-19T17:02:00.349Z,50.03
2023-01-19T17:04:29.932Z,43.40
2023-01-19T17:06:59.694Z,41.97
2023-01-19T17:09:29.808Z,45.00
2023-01-19T17:12:00.153Z,48.77
2023-01-19T17:14:30.078Z,48.42
2023-01-19T17:17:02.682Z,53.50
2023-01-19T17:19:32.562Z,43.50
2023-01-19T17:22:02.406Z,43.33
2023-01-19T17:24:32.360Z,43.48
2023-01-19T17:27:02.241Z,52.03
2023-01-19T17:29:31.999Z,41.77
2023-01-19T17:32:02.120Z,43.65
2023-01-19T17:34:31.966Z,48.57
2023-01-19T17:37:03.371Z,43.83
2023-01-19T17:39:33.646Z,42.50
2023-01-19T17:42:03.470Z,52.20
2023-01-19T17:44:33.213Z,48.13
2023-01-19T17:47:03.117Z,46.33
2023-01-19T17:49:33.001Z,47.47
2023-01-19T17:52:02.761Z,52.03
2023-01-19T17:54:32.692Z,44.58
2023-01-19T17:57:02.483Z,44.03
2023-01-19T17:59:32.596Z,47.75
2023-01-19T18:02:02.706Z,46.70
2023-01-19T18:04:32.398Z,54.67
2023-01-19T18:07:02.199Z,49.23
2023-01-19T18:09:32.131Z,51.77
2023-01-19T18:12:01.909Z,45.37
2023-01-19T18:14:31.428Z,52.43
2023-01-19T18:17:01.295Z,41.63
2023-01-19T18:19:31.201Z,45.57
2023-01-19T18:22:01.115Z,52.37
2023-01-19T18:24:30.832Z,46.45
2023-01-19T18:27:00.637Z,44.93
2023-01-19T18:29:30.734Z,55.90
2023-01-19T18:32:00.481Z,48.73
2023-01-19T18:34:30.650Z,47.55
2023-01-19T18:37:00.476Z,50.43
2023-01-19T18:39:32.993Z,51.55
2023-01-19T18:42:02.841Z,51.03
2023-01-19T18:44:32.914Z,48.00
2023-01-19T18:47:02.815Z,51.50
2023-01-19T18:49:33.045Z,47.20
2023-01-19T18:52:03.961Z,58.30
2023-01-19T18:54:34.042Z,52.65
2023-01-19T18:57:03.843Z,51.87
2023-01-19T18:59:33.948Z,55.98
2023-01-19T19:02:05.463Z,54.13
2023-01-19T19:04:35.497Z,52.38
2023-01-19T19:07:05.392Z,53.93
2023-01-19T19:09:36.052Z,60.63
2023-01-19T19:12:06.058Z,55.30
2023-01-19T19:14:36.185Z,56.80
2023-01-19T19:17:06.047Z,57.93
2023-01-19T19:19:36.131Z,60.08
2023-01-19T19:22:06.116Z,60.70
2023-01-19T19:24:36.168Z,59.18
2023-01-19T19:27:06.281Z,60.35
2023-01-19T19:29:36.384Z,57.98
2023-01-19T19:32:06.365Z,61.77
2023-01-19T19:34:36.410Z,58.58
2023-01-19T19:37:06.232Z,61.73
2023-01-19T19:39:38.244Z,60.00
2023-01-19T19:42:08.561Z,64.95
2023-01-19T19:44:38.648Z,61.90
2023-01-19T19:47:08.615Z,73.40
2023-01-19T19:49:39.050Z,61.13
2023-01-19T19:52:08.828Z,57.17
2023-01-19T19:54:39.121Z,63.13
2023-01-19T19:57:08.919Z,63.03
2023-01-19T19:59:39.154Z,66.05
2023-01-19T20:02:12.730Z,61.28
2023-01-19T20:04:44.212Z,60.08
2023-01-19T20:07:14.022Z,58.70
2023-01-19T20:09:45.232Z,62.85
2023-01-19T20:12:15.947Z,63.55
2023-01-19T20:14:45.718Z,57.97
2023-01-19T20:17:15.492Z,60.67
2023-01-19T20:19:47.177Z,67.72
2023-01-19T20:22:18.589Z,61.17
2023-01-19T20:24:48.590Z,65.57
2023-01-19T20:27:18.969Z,67.95
2023-01-19T20:29:54.434Z,63.40
2023-01-19T20:32:25.137Z,67.47
2023-01-19T20:34:55.005Z,72.30
2023-01-19T20:37:24.815Z,66.63
2023-01-19T20:39:54.743Z,72.13
2023-01-19T20:42:24.560Z,60.88
2023-01-19T20:44:55.605Z,77.30
2023-01-19T20:47:25.879Z,73.30
2023-01-19T20:49:55.672Z,72.80
2023-01-19T20:52:25.460Z,80.12
2023-01-19T20:54:55.393Z,71.40
2023-01-19T20:57:25.335Z,72.00
2023-01-19T20:59:55.104Z,71.63
2023-01-19T21:02:28.414Z,76.92
2023-01-19T21:04:57.566Z,70.67
2023-01-19T21:07:27.538Z,80.97
2023-01-19T21:09:57.470Z,71.33
2023-01-19T21:12:27.232Z,64.67
2023-01-19T21:14:57.027Z,77.50
2023-01-19T21:17:26.870Z,74.73
2023-01-19T21:19:56.697Z,75.10
2023-01-19T21:22:26.536Z,75.87
2023-01-19T21:24:56.375Z,74.63
2023-01-19T21:27:26.189Z,82.10
2023-01-19T21:29:55.951Z,79.03
2023-01-19T21:32:25.854Z,82.40
2023-01-19T21:34:55.973Z,90.35
2023-01-19T21:37:26.199Z,93.37
2023-01-19T21:39:55.957Z,76.07
2023-01-19T21:42:25.562Z,88.97
2023-01-19T21:44:55.345Z,91.37
2023-01-19T21:47:25.122Z,91.37
2023-01-19T21:49:54.891Z,80.80
2023-01-19T21:52:24.744Z,91.67
2023-01-19T21:54:54.589Z,89.77
2023-01-19T21:57:24.414Z,96.50
2023-01-19T21:59:54.168Z,92.63
2023-01-19T22:02:37.883Z,90.53
2023-01-19T22:04:55.486Z,89.90
2023-01-19T22:07:25.384Z,87.03
2023-01-19T22:09:55.140Z,81.70
2023-01-19T22:12:25.001Z,86.42
2023-01-19T22:14:55.222Z,78.97
2023-01-19T22:17:25.087Z,86.07
2023-01-19T22:19:55.231Z,84.92
2023-01-19T22:22:24.729Z,75.63
2023-01-19T22:24:54.550Z,77.17
2023-01-19T22:27:24.702Z,77.42
2023-01-19T22:29:54.563Z,69.70
2023-01-19T22:32:24.419Z,72.62
2023-01-19T22:34:54.188Z,78.23
2023-01-19T22:37:24.019Z,80.80
2023-01-19T22:39:54.523Z,76.17
2023-01-19T22:42:24.285Z,70.97
2023-01-19T22:44:54.064Z,65.37
2023-01-19T22:47:23.864Z,59.87
2023-01-19T22:49:53.597Z,70.33
2023-01-19T22:52:23.534Z,68.55
2023-01-19T22:54:55.928Z,66.15
2023-01-19T22:57:25.916Z,63.87
2023-01-19T22:59:55.679Z,65.30
2023-01-19T23:02:25.420Z,65.87
2023-01-19T23:04:55.185Z,71.17
2023-01-19T23:07:25.013Z,67.30
2023-01-19T23:09:54.847Z,68.57
2023-01-19T23:12:24.390Z,66.23
2023-01-19T23:14:54.168Z,65.10
2023-01-19T23:17:23.968Z,77.17
2023-01-19T23:19:54.032Z,69.40
2023-01-19T23:22:23.478Z,72.27
2023-01-19T23:24:53.262Z,83.27
2023-01-19T23:27:23.084Z,80.67
2023-01-19T23:29:54.328Z,74.10
2023-01-19T23:32:24.270Z,76.72
2023-01-19T23:34:54.311Z,75.30
2023-01-19T23:37:24.165Z,85.00
2023-01-19T23:39:54.324Z,85.50
2023-01-19T23:42:24.183Z,90.42
2023-01-19T23:44:54.008Z,80.83
2023-01-19T23:47:24.165Z,84.55
2023-01-19T23:49:53.980Z,77.97
2023-01-19T23:52:24.166Z,81.25
2023-01-19T23:54:53.991Z,79.47
2023-01-19T23:57:23.741Z,81.90
2023-01-19T23:59:53.539Z,84.93
